createdAt,value
2019-02-07T00:01:27.012Z,13.50
2019-02-07T00:04:13.838Z,20.03
2019-02-07T00:06:41.111Z,19.27
2019-02-07T00:09:27.949Z,19.07
2019-02-07T00:12:14.687Z,18.63
2019-02-07T00:14:42.051Z,13.47
2019-02-07T00:17:09.444Z,18.57
2019-02-07T00:19:37.071Z,17.33
2019-02-07T00:22:06.619Z,17.87
2019-02-07T00:24:53.457Z,21.23
2019-02-07T00:27:20.818Z,12.57
2019-02-07T00:30:07.656Z,11.83
2019-02-07T00:32:35.039Z,16.50
2019-02-07T00:35:21.884Z,18.40
2019-02-07T00:43:49.158Z,13.20
2019-02-07T00:46:35.987Z,11.80
2019-02-07T00:55:03.348Z,12.77
2019-02-07T00:57:50.099Z,6.37
2019-02-07T01:00:36.917Z,6.70
2019-02-07T01:03:04.548Z,9.10
2019-02-07T01:05:51.358Z,10.73
2019-02-07T01:11:17.409Z,6.53
2019-02-07T01:16:51.758Z,11.43
2019-02-07T01:19:38.570Z,7.53
2019-02-07T01:28:03.359Z,6.13
2019-02-07T01:30:30.719Z,6.43
2019-02-07T01:33:17.466Z,3.83
2019-02-07T01:35:44.736Z,5.90
2019-02-07T01:38:11.988Z,6.50
2019-02-07T01:40:39.341Z,5.60
2019-02-07T01:43:06.696Z,6.10
2019-02-07T01:45:53.543Z,3.83
2019-02-07T01:51:19.931Z,5.73
2019-02-07T01:54:06.706Z,5.83
2019-02-07T01:56:46.797Z,7.20
2019-02-07T01:59:14.498Z,7.30
2019-02-07T02:02:01.416Z,7.73
2019-02-07T02:07:27.476Z,7.90
2019-02-07T02:10:14.243Z,7.20
2019-02-07T02:13:01.074Z,7.97
2019-02-07T02:15:28.396Z,9.83
2019-02-07T02:17:55.956Z,6.53
2019-02-07T02:20:43.089Z,11.13
2019-02-07T02:23:10.455Z,7.93
2019-02-07T02:25:37.729Z,9.53
2019-02-07T02:28:24.568Z,10.67
2019-02-07T02:31:11.602Z,10.13
2019-02-07T02:33:38.965Z,9.77
2019-02-07T02:36:25.701Z,9.40
2019-02-07T02:38:53.055Z,6.97
2019-02-07T02:41:20.394Z,8.23
2019-02-07T02:43:47.649Z,6.47
2019-02-07T02:46:15.051Z,11.10
2019-02-07T02:48:42.392Z,6.23
2019-02-07T02:51:09.743Z,9.43
2019-02-07T02:53:37.041Z,8.20
2019-02-07T02:56:05.392Z,7.67
2019-02-07T02:58:32.754Z,7.47
2019-02-07T03:01:22.690Z,5.40
2019-02-07T03:03:56.807Z,5.73
2019-02-07T03:06:44.170Z,7.33
2019-02-07T03:09:37.209Z,6.17
2019-02-07T03:12:43.735Z,6.33
2019-02-07T03:15:50.230Z,7.60
2019-02-07T03:18:57.235Z,6.10
2019-02-07T03:22:01.875Z,5.83
2019-02-07T03:27:42.828Z,3.53
2019-02-07T03:30:49.185Z,6.00
2019-02-07T03:33:48.363Z,5.90
2019-02-07T03:39:24.772Z,7.77
2019-02-07T03:42:31.220Z,6.37
2019-02-07T03:45:11.645Z,3.57
2019-02-07T03:47:58.798Z,5.87
2019-02-07T03:50:51.809Z,7.77
2019-02-07T03:53:47.591Z,7.47
2019-02-07T03:56:53.939Z,7.63
2019-02-07T03:59:46.873Z,3.97
2019-02-07T04:02:33.858Z,6.23
2019-02-07T04:05:12.555Z,6.90
2019-02-07T04:08:18.865Z,3.93
2019-02-07T04:11:09.949Z,8.27
2019-02-07T04:13:57.081Z,5.67
2019-02-07T04:17:03.586Z,5.90
2019-02-07T04:22:48.114Z,7.77
2019-02-07T04:25:33.745Z,5.40
2019-02-07T04:28:40.212Z,3.70
2019-02-07T04:31:27.200Z,4.80
2019-02-07T04:34:12.439Z,4.80
2019-02-07T04:37:02.902Z,3.53
2019-02-07T04:39:58.387Z,5.67
2019-02-07T04:42:55.435Z,6.47
2019-02-07T04:45:50.986Z,8.20
2019-02-07T04:51:45.312Z,8.33
2019-02-07T04:54:53.533Z,7.87
2019-02-07T04:57:43.828Z,7.47
2019-02-07T05:03:35.319Z,10.07
2019-02-07T05:06:15.431Z,10.07
2019-02-07T05:09:08.510Z,6.20
2019-02-07T05:11:58.170Z,6.30
2019-02-07T05:15:04.738Z,9.20
2019-02-07T05:21:07.289Z,7.10
2019-02-07T05:23:54.136Z,8.37
2019-02-07T05:26:44.465Z,7.10
2019-02-07T05:29:23.432Z,5.73
2019-02-07T05:32:15.065Z,3.23
2019-02-07T05:35:21.298Z,4.33
2019-02-07T05:37:56.860Z,6.37
2019-02-07T05:41:03.083Z,4.43
2019-02-07T05:47:02.731Z,5.13
2019-02-07T05:50:09.020Z,7.17
2019-02-07T05:52:54.310Z,7.37
2019-02-07T05:55:39.843Z,4.53
2019-02-07T05:58:46.049Z,3.90
2019-02-07T06:01:32.958Z,7.73
2019-02-07T06:04:09.230Z,4.17
2019-02-07T06:07:15.734Z,7.93
2019-02-07T06:09:55.151Z,6.43
2019-02-07T06:12:30.888Z,12.10
2019-02-07T06:15:23.352Z,14.57
2019-02-07T06:18:08.453Z,13.17
2019-02-07T06:21:14.760Z,21.97
2019-02-07T06:23:58.041Z,16.77
2019-02-07T06:27:04.341Z,15.90
2019-02-07T06:29:51.772Z,25.57
2019-02-07T06:32:28.957Z,22.77
2019-02-07T06:35:16.612Z,19.67
2019-02-07T06:37:52.403Z,17.57
2019-02-07T06:40:45.108Z,14.97
2019-02-07T06:43:31.990Z,24.47
2019-02-07T06:46:38.551Z,16.57
2019-02-07T06:49:33.078Z,19.80
2019-02-07T06:52:39.324Z,18.30
2019-02-07T06:55:29.217Z,22.40
2019-02-07T06:58:18.957Z,20.07
2019-02-07T07:01:11.736Z,15.37
2019-02-07T07:09:54.593Z,15.13
2019-02-07T07:12:40.161Z,12.43
2019-02-07T07:15:46.359Z,15.77
2019-02-07T07:18:39.031Z,18.33
2019-02-07T07:21:20.427Z,30.73
2019-02-07T07:24:07.212Z,26.50
2019-02-07T07:27:13.514Z,17.70
2019-02-07T07:29:58.343Z,27.17
2019-02-07T07:33:04.912Z,19.03
2019-02-07T07:36:06.737Z,24.67
2019-02-07T07:38:59.371Z,33.77
2019-02-07T07:41:53.395Z,24.00
2019-02-07T07:44:43.282Z,27.93
2019-02-07T07:47:39.017Z,16.43
2019-02-07T07:50:17.381Z,18.23
2019-02-07T07:53:04.298Z,27.00
2019-02-07T07:55:48.519Z,33.90
2019-02-07T07:58:24.538Z,16.07
2019-02-07T08:01:30.842Z,31.50
2019-02-07T08:04:16.497Z,21.67
2019-02-07T08:06:52.626Z,29.40
2019-02-07T08:09:59.156Z,21.80
2019-02-07T08:12:34.809Z,31.37
2019-02-07T08:15:41.420Z,16.63
2019-02-07T08:18:28.465Z,18.07
2019-02-07T08:21:21.442Z,24.77
2019-02-07T08:23:56.895Z,20.70
2019-02-07T08:27:01.412Z,33.97
2019-02-07T08:29:38.241Z,25.20
2019-02-07T08:32:17.404Z,28.73
2019-02-07T08:35:04.231Z,23.40
2019-02-07T08:40:52.170Z,25.90
2019-02-07T08:43:37.620Z,23.23
2019-02-07T08:46:27.407Z,29.63
2019-02-07T08:49:23.297Z,17.77
2019-02-07T08:52:29.595Z,14.03
2019-02-07T08:55:22.152Z,39.90
2019-02-07T08:58:18.407Z,23.83
2019-02-07T09:01:24.949Z,32.20
2019-02-07T09:04:03.493Z,30.90
2019-02-07T09:06:46.819Z,22.57
2019-02-07T09:09:34.008Z,35.43
2019-02-07T09:12:26.556Z,28.90
2019-02-07T09:15:04.374Z,29.33
2019-02-07T09:20:58.048Z,26.77
2019-02-07T09:24:04.263Z,24.33
2019-02-07T09:26:49.838Z,37.70
2019-02-07T09:29:37.031Z,35.67
2019-02-07T09:32:24.082Z,17.23
2019-02-07T09:35:09.353Z,19.13
2019-02-07T09:37:54.942Z,25.37
2019-02-07T09:41:01.321Z,22.87
2019-02-07T09:44:07.877Z,22.83
2019-02-07T09:47:06.974Z,31.23
2019-02-07T09:49:50.640Z,25.97
2019-02-07T09:52:45.354Z,24.13
2019-02-07T09:55:51.558Z,25.20
2019-02-07T09:58:42.585Z,19.07
2019-02-07T10:01:33.461Z,33.40
2019-02-07T10:04:40.080Z,25.03
2019-02-07T10:07:14.808Z,16.83
2019-02-07T10:10:01.988Z,25.97
2019-02-07T10:13:06.467Z,20.93
2019-02-07T10:15:52.213Z,34.53
2019-02-07T10:18:42.112Z,14.00
2019-02-07T10:21:34.761Z,12.03
2019-02-07T10:24:33.618Z,24.07
2019-02-07T10:27:20.850Z,20.27
2019-02-07T10:30:27.163Z,14.00
2019-02-07T10:33:07.292Z,16.97
2019-02-07T10:35:52.519Z,23.67
2019-02-07T10:38:25.370Z,14.20
2019-02-07T10:41:15.262Z,17.23
2019-02-07T10:44:21.573Z,16.53
2019-02-07T10:47:06.895Z,21.57
2019-02-07T10:49:59.278Z,17.50
2019-02-07T10:52:40.835Z,15.40
2019-02-07T10:55:18.301Z,11.53
2019-02-07T10:58:25.541Z,19.57
2019-02-07T11:04:37.796Z,17.87
2019-02-07T11:07:24.666Z,10.63
2019-02-07T11:10:04.343Z,15.83
2019-02-07T11:12:53.993Z,20.73
2019-02-07T11:16:00.283Z,25.63
2019-02-07T11:24:45.135Z,20.03
2019-02-07T11:27:51.424Z,15.87
2019-02-07T11:33:31.520Z,9.13
2019-02-07T11:36:37.988Z,9.00
2019-02-07T11:42:42.666Z,12.30
2019-02-07T11:45:48.961Z,7.10
2019-02-07T11:48:41.701Z,20.20
2019-02-07T11:51:40.283Z,16.47
2019-02-07T11:54:39.354Z,8.70
2019-02-07T11:57:26.209Z,8.97
2019-02-07T12:03:12.231Z,10.23
2019-02-07T12:06:18.997Z,10.30
2019-02-07T12:08:53.499Z,13.53
2019-02-07T12:11:38.697Z,12.50
2019-02-07T12:14:23.818Z,29.03
2019-02-07T12:17:10.694Z,12.90
2019-02-07T12:20:16.903Z,14.43
2019-02-07T12:23:09.825Z,6.00
2019-02-07T12:25:47.619Z,7.33
2019-02-07T12:28:32.852Z,11.30
2019-02-07T12:31:27.165Z,9.53
2019-02-07T12:34:09.872Z,9.07
2019-02-07T12:37:16.416Z,18.07
2019-02-07T12:40:15.426Z,10.03
2019-02-07T12:43:01.384Z,10.70
2019-02-07T12:45:47.009Z,11.33
2019-02-07T12:48:32.213Z,9.10
2019-02-07T12:51:38.517Z,10.73
2019-02-07T12:57:35.819Z,5.00
2019-02-07T13:00:42.124Z,8.67
2019-02-07T13:03:47.411Z,9.47
2019-02-07T13:06:34.205Z,10.83
2019-02-07T13:09:19.381Z,8.37
2019-02-07T13:12:10.327Z,7.57
2019-02-07T13:14:50.606Z,5.20
2019-02-07T13:17:59.126Z,13.23
2019-02-07T13:20:45.936Z,5.70
2019-02-07T13:23:38.596Z,9.73
2019-02-07T13:26:44.910Z,8.13
2019-02-07T13:29:30.753Z,12.67
2019-02-07T13:32:12.588Z,10.03
2019-02-07T13:35:02.256Z,6.90
2019-02-07T13:38:08.551Z,9.83
2019-02-07T13:47:18.247Z,6.47
2019-02-07T13:50:05.013Z,9.67
2019-02-07T13:53:11.317Z,5.40
2019-02-07T13:55:52.028Z,5.37
2019-02-07T13:58:58.439Z,6.17
2019-02-07T14:01:54.842Z,5.77
2019-02-07T14:04:59.730Z,5.20
2019-02-07T14:08:06.273Z,6.70
2019-02-07T14:11:12.856Z,10.33
2019-02-07T14:14:08.344Z,7.10
2019-02-07T14:17:14.669Z,5.70
2019-02-07T14:20:07.785Z,6.87
2019-02-07T14:22:57.486Z,9.67
2019-02-07T14:25:33.397Z,7.53
2019-02-07T14:28:39.711Z,9.37
2019-02-07T14:31:25.238Z,11.50
2019-02-07T14:34:10.171Z,12.23
2019-02-07T14:36:55.753Z,12.27
2019-02-07T14:39:48.643Z,9.30
2019-02-07T14:51:27.599Z,7.90
2019-02-07T14:53:55.213Z,16.77
2019-02-07T14:56:22.478Z,16.90
2019-02-07T14:59:09.507Z,8.93
2019-02-07T15:01:56.371Z,10.70
2019-02-07T15:04:23.752Z,16.80
2019-02-07T15:07:10.879Z,11.77
2019-02-07T15:09:38.549Z,18.27
2019-02-07T15:12:25.733Z,13.80
2019-02-07T15:17:52.454Z,11.10
2019-02-07T15:20:26.317Z,8.80
2019-02-07T15:23:08.474Z,9.17
2019-02-07T15:25:35.890Z,9.07
2019-02-07T15:28:03.539Z,8.87
2019-02-07T15:30:50.386Z,8.83
2019-02-07T15:36:31.736Z,12.80
2019-02-07T15:39:18.563Z,9.53
2019-02-07T15:41:45.928Z,8.27
2019-02-07T15:44:13.299Z,7.27
2019-02-07T15:46:40.736Z,12.00
2019-02-07T15:49:08.612Z,10.40
2019-02-07T15:51:55.335Z,13.53
2019-02-07T15:54:22.922Z,12.43
2019-02-07T15:56:50.214Z,17.73
2019-02-07T15:59:22.094Z,6.20
2019-02-07T16:02:28.356Z,13.90
2019-02-07T16:05:15.297Z,7.43
2019-02-07T16:13:56.550Z,12.93
2019-02-07T16:16:43.383Z,5.97
2019-02-07T16:19:10.728Z,8.17
2019-02-07T16:21:38.256Z,12.67
2019-02-07T16:24:05.912Z,11.43
2019-02-07T16:26:33.273Z,13.47
2019-02-07T16:29:00.691Z,7.90
2019-02-07T16:31:47.515Z,12.70
2019-02-07T16:37:15.435Z,5.30
2019-02-07T16:39:42.852Z,6.17
2019-02-07T16:42:29.685Z,9.40
2019-02-07T16:44:57.333Z,18.67
2019-02-07T16:47:24.670Z,5.17
2019-02-07T16:49:52.063Z,11.17
2019-02-07T16:52:19.771Z,9.03
2019-02-07T16:54:47.410Z,13.00
2019-02-07T16:57:34.262Z,11.27
2019-02-07T17:00:21.124Z,13.20
2019-02-07T17:02:48.596Z,11.50
2019-02-07T17:05:17.049Z,16.07
2019-02-07T17:08:03.918Z,13.97
2019-02-07T17:10:50.739Z,8.33
2019-02-07T17:28:14.933Z,10.03
2019-02-07T17:30:42.285Z,15.37
2019-02-07T17:33:09.725Z,9.80
2019-02-07T17:35:37.376Z,6.57
2019-02-07T17:38:05.042Z,12.53
2019-02-07T17:40:51.900Z,10.77
2019-02-07T17:43:39.062Z,8.90
2019-02-07T17:46:06.423Z,9.83
2019-02-07T17:48:34.057Z,14.73
2019-02-07T17:51:23.222Z,8.53
2019-02-07T17:53:50.106Z,10.13
2019-02-07T17:56:17.481Z,8.50
2019-02-07T17:58:44.852Z,9.20
2019-02-07T18:01:12.208Z,9.57
2019-02-07T18:03:39.855Z,12.73
2019-02-07T18:06:27.049Z,13.63
2019-02-07T18:08:54.429Z,8.80
2019-02-07T18:11:21.728Z,11.90
2019-02-07T18:14:08.486Z,10.17
2019-02-07T18:16:36.241Z,14.60
2019-02-07T18:19:23.414Z,10.33
2019-02-07T18:21:51.062Z,11.37
2019-02-07T18:24:18.473Z,11.13
2019-02-07T18:26:45.892Z,15.43
2019-02-07T18:29:13.472Z,11.87
2019-02-07T18:32:00.361Z,12.03
2019-02-07T18:34:47.269Z,7.30
2019-02-07T18:43:12.664Z,11.50
2019-02-07T18:45:39.922Z,10.80
2019-02-07T18:48:27.051Z,6.33
2019-02-07T18:50:54.438Z,11.57
2019-02-07T18:53:41.908Z,14.03
2019-02-07T18:56:09.382Z,6.47
2019-02-07T18:58:36.799Z,10.00
2019-02-07T19:01:23.619Z,15.17
2019-02-07T19:03:51.395Z,10.30
2019-02-07T19:06:18.799Z,17.83
2019-02-07T19:08:46.231Z,16.87
2019-02-07T19:11:13.611Z,9.97
2019-02-07T19:13:40.984Z,7.17
2019-02-07T19:16:10.884Z,13.10
2019-02-07T19:18:38.370Z,13.30
2019-02-07T19:21:06.493Z,14.97
2019-02-07T19:23:34.304Z,17.47
2019-02-07T19:34:56.925Z,10.00
2019-02-07T19:37:43.760Z,15.53
2019-02-07T19:40:11.252Z,8.30
2019-02-07T19:42:38.606Z,5.87
2019-02-07T19:45:06.402Z,16.50
2019-02-07T19:47:53.454Z,15.33
2019-02-07T19:50:21.507Z,17.97
2019-02-07T19:52:49.478Z,11.87
2019-02-07T19:55:17.895Z,13.07
2019-02-07T19:58:04.744Z,14.00
2019-02-07T20:00:32.767Z,18.03
2019-02-07T20:03:19.599Z,11.40
2019-02-07T20:05:47.185Z,11.03
2019-02-07T20:08:34.213Z,14.53
2019-02-07T20:11:01.596Z,6.40
2019-02-07T20:13:48.430Z,6.23
2019-02-07T20:16:16.065Z,17.17
2019-02-07T20:18:43.643Z,10.93
2019-02-07T20:21:30.485Z,16.00
2019-02-07T20:23:58.115Z,6.70
2019-02-07T20:26:25.703Z,8.03
2019-02-07T20:29:12.542Z,10.70
2019-02-07T20:31:39.916Z,12.77
2019-02-07T20:34:26.766Z,7.57
2019-02-07T20:36:54.141Z,14.50
2019-02-07T20:39:21.529Z,12.43
2019-02-07T20:41:49.470Z,10.07
2019-02-07T20:44:16.828Z,9.03
2019-02-07T20:46:44.077Z,13.63
2019-02-07T20:49:30.831Z,14.27
2019-02-07T20:52:10.384Z,12.63
2019-02-07T20:54:37.982Z,14.53
2019-02-07T20:57:05.612Z,7.43
2019-02-07T20:59:32.972Z,10.60
2019-02-07T21:02:00.328Z,8.77
2019-02-07T21:04:27.729Z,14.70
2019-02-07T21:06:55.115Z,7.57
2019-02-07T21:09:22.474Z,9.27
2019-02-07T21:12:09.328Z,6.00
2019-02-07T21:14:36.720Z,6.80
2019-02-07T21:17:04.102Z,12.20
2019-02-07T21:19:50.963Z,10.70
2019-02-07T21:22:20.437Z,9.63
2019-02-07T21:24:48.079Z,16.43
2019-02-07T21:27:15.482Z,3.33
2019-02-07T21:29:42.832Z,9.40
2019-02-07T21:32:29.686Z,8.33
2019-02-07T21:41:07.990Z,11.00
2019-02-07T21:43:54.843Z,12.37
2019-02-07T21:46:22.481Z,11.80
2019-02-07T21:48:49.849Z,6.30
2019-02-07T21:51:17.502Z,15.20
2019-02-07T21:53:44.939Z,4.67
2019-02-07T21:56:12.301Z,14.63
2019-02-07T21:58:39.654Z,7.97
2019-02-07T22:01:26.969Z,8.33
2019-02-07T22:04:13.723Z,10.30
2019-02-07T22:21:32.914Z,6.27
2019-02-07T22:24:00.183Z,8.07
2019-02-07T22:26:27.835Z,3.03
2019-02-07T22:28:55.208Z,8.03
2019-02-07T22:31:22.563Z,13.17
2019-02-07T22:33:49.788Z,10.30
2019-02-07T22:36:36.657Z,8.43
2019-02-07T22:39:23.498Z,4.33
2019-02-07T22:44:49.094Z,7.90
2019-02-07T22:47:16.437Z,4.60
2019-02-07T22:49:43.967Z,1.90
2019-02-07T22:52:30.818Z,8.30
2019-02-07T22:54:58.188Z,4.33
2019-02-07T22:57:44.926Z,8.70
2019-02-07T23:03:20.399Z,8.57
2019-02-07T23:06:07.218Z,3.93
2019-02-07T23:08:34.863Z,9.07
2019-02-07T23:11:21.618Z,4.33
2019-02-07T23:17:01.600Z,9.20
2019-02-07T23:19:48.435Z,7.30
2019-02-07T23:34:12.312Z,9.40
2019-02-07T23:36:39.911Z,5.40
2019-02-07T23:39:08.348Z,8.17
2019-02-07T23:41:35.944Z,5.17
2019-02-07T23:44:22.889Z,8.57
2019-02-07T23:47:09.733Z,5.13
2019-02-07T23:49:36.991Z,5.07
2019-02-07T23:52:23.825Z,2.33
2019-02-07T23:54:51.449Z,6.13
2019-02-07T23:57:18.705Z,4.77
2019-02-07T23:59:46.079Z,9.70
